Hillsboro, Virginia
Current Conditions -  °F | °C
As of 5:15 AM on Tuesday 27 Jan 2015 (Local Time) from KJYO Reporting Station
Light Snow Light Snow  
Wind Chill: 22°   Ceiling: 3700
Heat Index: 30°   Visibility: 10mi
Dew Point: 27°   Wind: 9mph
Humidity: 86%   Direction: 360°N
Pressure: 29.78"   Gusts: 16mph
Location:  39.1337°N, 77.7065°W
Report Text: KJYO 271015Z AUTO 36008G14KT 10SM -SN OVC037 M01/M03 A2978 RMK AO2
Loading
Personal Weather Stations






























Interactive Weather Map New forecast layout! Learn more

10-Day Weather Forecast

Advertisements
Track Severe Weather on mobile